地図

経路データ

SID SEASON NUMBER BASIN SUBBASIN NAME ISO_TIME NATURE LAT LON WMO_WIND WMO_PRES WMO_AGENCY TRACK_TYPE DIST2LAND LANDFALL IFLAG USA_AGENCY USA_ATCF_ID USA_LAT USA_LON USA_RECORD USA_STATUS USA_WIND USA_PRES USA_SSHS USA_R34_NE USA_R34_SE USA_R34_SW USA_R34_NW USA_R50_NE USA_R50_SE USA_R50_SW USA_R50_NW USA_R64_NE USA_R64_SE USA_R64_SW USA_R64_NW USA_POCI USA_ROCI USA_RMW USA_EYE TOKYO_LAT TOKYO_LON TOKYO_GRADE TOKYO_WIND TOKYO_PRES TOKYO_R50_DIR TOKYO_R50_LONG TOKYO_R50_SHORT TOKYO_R30_DIR TOKYO_R30_LONG TOKYO_R30_SHORT TOKYO_LAND CMA_LAT CMA_LON CMA_CAT CMA_WIND CMA_PRES HKO_LAT HKO_LON HKO_CAT HKO_WIND HKO_PRES NEWDELHI_LAT NEWDELHI_LON NEWDELHI_GRADE NEWDELHI_WIND NEWDELHI_PRES NEWDELHI_CI NEWDELHI_DP NEWDELHI_POCI REUNION_LAT REUNION_LON REUNION_TYPE REUNION_WIND REUNION_PRES REUNION_TNUM REUNION_CI REUNION_RMW REUNION_R34_NE REUNION_R34_SE REUNION_R34_SW REUNION_R34_NW REUNION_R50_NE REUNION_R50_SE REUNION_R50_SW REUNION_R50_NW REUNION_R64_NE REUNION_R64_SE REUNION_R64_SW REUNION_R64_NW BOM_LAT BOM_LON BOM_TYPE BOM_WIND BOM_PRES BOM_TNUM BOM_CI BOM_RMW BOM_R34_NE BOM_R34_SE BOM_R34_SW BOM_R34_NW BOM_R50_NE BOM_R50_SE BOM_R50_SW BOM_R50_NW BOM_R64_NE BOM_R64_SE BOM_R64_SW BOM_R64_NW BOM_ROCI BOM_POCI BOM_EYE BOM_POS_METHOD BOM_PRES_METHOD NADI_LAT NADI_LON NADI_CAT NADI_WIND NADI_PRES WELLINGTON_LAT WELLINGTON_LON WELLINGTON_WIND WELLINGTON_PRES DS824_LAT DS824_LON DS824_STAGE DS824_WIND DS824_PRES TD9636_LAT TD9636_LON TD9636_STAGE TD9636_WIND TD9636_PRES TD9635_LAT TD9635_LON TD9635_WIND TD9635_PRES TD9635_ROCI NEUMANN_LAT NEUMANN_LON NEUMANN_CLASS NEUMANN_WIND NEUMANN_PRES MLC_LAT MLC_LON MLC_CLASS MLC_WIND MLC_PRES USA_GUST BOM_GUST BOM_GUST_PER REUNION_GUST REUNION_GUST_PER USA_SEAHGT USA_SEARAD_NE USA_SEARAD_SE USA_SEARAD_SW USA_SEARAD_NW STORM_SPEED STORM_DIR
1933286N11118 1933 67 WP MM NOT_NAMED 1933-10-13 10:00:00 NR 10.6000 118.400 main 70 70 __________O___ -1 10.6000 118.400 7 9 277
1933286N11118 1933 67 WP MM NOT_NAMED 1933-10-13 12:00:00 NR 10.6336 118.109 main 94 94 __________P___ -1 10.6336 118.109 7 9 277
1933286N11118 1933 67 WP MM NOT_NAMED 1933-10-13 15:00:00 NR 10.6838 117.668 main 137 147 __________P___ -1 10.6838 117.668 7 9 277
1933286N11118 1933 67 WP MM NOT_NAMED 1933-10-13 18:00:00 NR 10.7336 117.220 main 180 180 __________P___ -1 10.7336 117.220 7 9 276
1933286N11118 1933 67 WP MM NOT_NAMED 1933-10-13 21:00:00 NR 10.7834 116.758 main 210 215 __________P___ -1 10.7834 116.758 7 9 276
1933286N11118 1933 67 WP MM NOT_NAMED 1933-10-13 22:00:00 NR 10.8000 116.600 main 222 222 __________O___ -1 10.8000 116.600 7 9 276
1933286N11118 1933 67 WP MM NOT_NAMED 1933-10-14 00:00:00 NR 10.8332 116.278 main 243 243 __________P___ -1 10.8332 116.278 7 10 276
1933286N11118 1933 67 WP MM NOT_NAMED 1933-10-14 03:00:00 NR 10.8832 115.783 main 289 289 __________P___ -1 10.8832 115.783 7 10 276
1933286N11118 1933 67 WP MM NOT_NAMED 1933-10-14 06:00:00 NR 10.9332 115.277 main 329 337 __________P___ -1 10.9332 115.277 7 10 276
1933286N11118 1933 67 WP MM NOT_NAMED 1933-10-14 09:00:00 NR 10.9833 114.769 main 378 386 __________P___ -1 10.9833 114.769 7 10 276
1933286N11118 1933 67 WP MM NOT_NAMED 1933-10-14 10:00:00 NR 11.0000 114.600 main 395 395 __________O___ -1 11.0000 114.600 7 10 275
1933286N11118 1933 67 WP MM NOT_NAMED 1933-10-14 12:00:00 NR 11.0306 114.264 main 422 431 __________P___ -1 11.0306 114.264 7 10 275
1933286N11118 1933 67 WP MM NOT_NAMED 1933-10-14 15:00:00 NR 11.0765 113.760 main 474 445 __________P___ -1 11.0765 113.760 7 10 275
1933286N11118 1933 67 WP MM NOT_NAMED 1933-10-14 18:00:00 NR 11.1252 113.259 main 445 389 __________P___ -1 11.1252 113.259 7 10 276
1933286N11118 1933 67 WP MM NOT_NAMED 1933-10-14 21:00:00 NR 11.1799 112.763 main 389 368 __________P___ -1 11.1799 112.763 7 10 277
1933286N11118 1933 67 WP MM NOT_NAMED 1933-10-14 22:00:00 NR 11.2000 112.600 main 368 336 __________O___ -1 11.2000 112.600 7 10 278
1933286N11118 1933 67 WP MM NOT_NAMED 1933-10-15 00:00:00 NR 11.2466 112.283 main 336 280 __________P___ -1 11.2466 112.283 7 9 279
1933286N11118 1933 67 WP MM NOT_NAMED 1933-10-15 03:00:00 NR 11.3231 111.814 main 280 225 __________P___ -1 11.3231 111.814 7 9 280
1933286N11118 1933 67 WP MM NOT_NAMED 1933-10-15 06:00:00 NR 11.4020 111.344 main 225 180 __________P___ -1 11.4020 111.344 7 9 279
1933286N11118 1933 67 WP MM NOT_NAMED 1933-10-15 09:00:00 NR 11.4770 110.864 main 180 158 __________P___ -1 11.4770 110.864 7 10 279
1933286N11118 1933 67 WP MM NOT_NAMED 1933-10-15 10:00:00 NR 11.5000 110.700 main 158 127 __________O___ -1 11.5000 110.700 7 10 278
1933286N11118 1933 67 WP MM NOT_NAMED 1933-10-15 12:00:00 NR 11.5422 110.365 main 127 63 __________P___ -1 11.5422 110.365 7 10 277
1933286N11118 1933 67 WP MM NOT_NAMED 1933-10-15 15:00:00 NR 11.5970 109.848 main 63 15 __________P___ -1 11.5970 109.848 7 10 276
1933286N11118 1933 67 WP MM NOT_NAMED 1933-10-15 18:00:00 NR 11.6442 109.318 main 15 0 __________P___ -1 11.6442 109.318 7 11 275
1933286N11118 1933 67 WP MM NOT_NAMED 1933-10-15 21:00:00 NR 11.6865 108.780 main 0 0 __________P___ -1 11.6865 108.780 7 11 275
1933286N11118 1933 67 WP MM NOT_NAMED 1933-10-15 22:00:00 NR 11.7000 108.600 main 0 __________O___ -1 11.7000 108.600 7 11 274

デジタル台風データ・検索

IBTrACS Databaseについて

本データベースは、米国NOAAが公開する1842年以降の世界の熱帯低気圧のベストトラックデータアーカイブInternational Best Track Archive for Climate Stewardship (IBTrACS)を、ウェブで閲覧しやすい形式に変換したものです。

最終更新日:2021-12-01